sensor_id;sensor_type;location;lat;lon;timestamp;P1;durP1;ratioP1;P2;durP2;ratioP2
81725;SDS011;71135;16.738;-14.648;2024-03-08T00:00:23;28.25;;;12.90;;
81725;SDS011;71135;16.738;-14.648;2024-03-08T00:02:52;24.90;;;13.50;;
81725;SDS011;71135;16.738;-14.648;2024-03-08T00:05:21;24.25;;;12.75;;
81725;SDS011;71135;16.738;-14.648;2024-03-08T00:07:51;26.48;;;13.85;;
81725;SDS011;71135;16.738;-14.648;2024-03-08T00:10:20;23.63;;;11.95;;
81725;SDS011;71135;16.738;-14.648;2024-03-08T00:12:49;28.45;;;13.52;;
81725;SDS011;71135;16.738;-14.648;2024-03-08T00:15:21;19.80;;;10.63;;
81725;SDS011;71135;16.738;-14.648;2024-03-08T00:17:50;27.67;;;13.45;;
81725;SDS011;71135;16.738;-14.648;2024-03-08T00:20:20;23.70;;;12.35;;
81725;SDS011;71135;16.738;-14.648;2024-03-08T00:22:49;27.65;;;13.23;;
81725;SDS011;71135;16.738;-14.648;2024-03-08T00:25:23;22.55;;;12.10;;
81725;SDS011;71135;16.738;-14.648;2024-03-08T00:27:53;24.30;;;13.40;;
81725;SDS011;71135;16.738;-14.648;2024-03-08T00:30:25;22.10;;;12.70;;
81725;SDS011;71135;16.738;-14.648;2024-03-08T00:32:54;24.02;;;12.82;;
81725;SDS011;71135;16.738;-14.648;2024-03-08T00:35:24;26.17;;;13.65;;
81725;SDS011;71135;16.738;-14.648;2024-03-08T00:37:53;26.77;;;13.43;;
81725;SDS011;71135;16.738;-14.648;2024-03-08T00:40:22;25.15;;;13.20;;
81725;SDS011;71135;16.738;-14.648;2024-03-08T00:42:54;22.98;;;12.52;;
81725;SDS011;71135;16.738;-14.648;2024-03-08T00:45:26;24.00;;;12.93;;
81725;SDS011;71135;16.738;-14.648;2024-03-08T00:47:55;23.98;;;12.60;;
81725;SDS011;71135;16.738;-14.648;2024-03-08T00:50:24;25.30;;;13.32;;
81725;SDS011;71135;16.738;-14.648;2024-03-08T00:52:53;24.35;;;13.00;;
81725;SDS011;71135;16.738;-14.648;2024-03-08T00:55:25;26.77;;;12.93;;
81725;SDS011;71135;16.738;-14.648;2024-03-08T00:57:55;27.35;;;13.43;;
81725;SDS011;71135;16.738;-14.648;2024-03-08T01:03:28;25.05;;;13.73;;
81725;SDS011;71135;16.738;-14.648;2024-03-08T01:06:00;24.80;;;13.20;;
81725;SDS011;71135;16.738;-14.648;2024-03-08T01:08:30;23.63;;;12.90;;
81725;SDS011;71135;16.738;-14.648;2024-03-08T01:10:59;23.85;;;13.00;;
81725;SDS011;71135;16.738;-14.648;2024-03-08T01:13:28;27.23;;;13.13;;
81725;SDS011;71135;16.738;-14.648;2024-03-08T01:15:57;23.73;;;12.73;;
81725;SDS011;71135;16.738;-14.648;2024-03-08T01:18:29;25.23;;;13.38;;
81725;SDS011;71135;16.738;-14.648;2024-03-08T01:20:58;26.63;;;13.65;;
81725;SDS011;71135;16.738;-14.648;2024-03-08T01:23:27;28.25;;;14.60;;
81725;SDS011;71135;16.738;-14.648;2024-03-08T01:25:57;23.33;;;12.10;;
81725;SDS011;71135;16.738;-14.648;2024-03-08T01:28:28;26.38;;;13.90;;
81725;SDS011;71135;16.738;-14.648;2024-03-08T01:30:59;23.23;;;12.95;;
81725;SDS011;71135;16.738;-14.648;2024-03-08T01:33:32;26.67;;;12.73;;
81725;SDS011;71135;16.738;-14.648;2024-03-08T01:36:01;27.20;;;13.35;;
81725;SDS011;71135;16.738;-14.648;2024-03-08T01:41:35;25.73;;;12.60;;
81725;SDS011;71135;16.738;-14.648;2024-03-08T01:44:07;27.85;;;13.02;;
81725;SDS011;71135;16.738;-14.648;2024-03-08T01:46:36;23.60;;;12.57;;
81725;SDS011;71135;16.738;-14.648;2024-03-08T01:49:08;23.65;;;13.82;;
81725;SDS011;71135;16.738;-14.648;2024-03-08T01:51:37;24.08;;;13.52;;
81725;SDS011;71135;16.738;-14.648;2024-03-08T01:54:08;24.50;;;13.00;;
81725;SDS011;71135;16.738;-14.648;2024-03-08T01:56:39;27.80;;;12.95;;
81725;SDS011;71135;16.738;-14.648;2024-03-08T01:59:09;26.00;;;13.68;;
81725;SDS011;71135;16.738;-14.648;2024-03-08T02:01:40;25.42;;;13.85;;
81725;SDS011;71135;16.738;-14.648;2024-03-08T02:04:12;26.27;;;14.00;;
81725;SDS011;71135;16.738;-14.648;2024-03-08T02:06:42;23.52;;;13.43;;
81725;SDS011;71135;16.738;-14.648;2024-03-08T02:09:12;25.85;;;14.15;;
81725;SDS011;71135;16.738;-14.648;2024-03-08T02:11:42;29.27;;;14.55;;
81725;SDS011;71135;16.738;-14.648;2024-03-08T02:14:12;27.98;;;15.18;;
81725;SDS011;71135;16.738;-14.648;2024-03-08T02:20:02;23.42;;;12.40;;
81725;SDS011;71135;16.738;-14.648;2024-03-08T02:22:38;26.17;;;12.85;;
81725;SDS011;71135;16.738;-14.648;2024-03-08T02:25:08;26.30;;;14.10;;
81725;SDS011;71135;16.738;-14.648;2024-03-08T02:27:38;23.20;;;12.93;;
81725;SDS011;71135;16.738;-14.648;2024-03-08T02:30:07;24.98;;;13.88;;
81725;SDS011;71135;16.738;-14.648;2024-03-08T02:32:38;25.13;;;14.05;;
81725;SDS011;71135;16.738;-14.648;2024-03-08T02:35:07;27.38;;;13.70;;
81725;SDS011;71135;16.738;-14.648;2024-03-08T02:37:39;27.38;;;13.65;;
81725;SDS011;71135;16.738;-14.648;2024-03-08T02:40:08;25.85;;;14.30;;
81725;SDS011;71135;16.738;-14.648;2024-03-08T02:42:39;30.67;;;13.07;;
81725;SDS011;71135;16.738;-14.648;2024-03-08T02:45:08;24.52;;;13.63;;
81725;SDS011;71135;16.738;-14.648;2024-03-08T02:47:38;23.15;;;12.60;;
81725;SDS011;71135;16.738;-14.648;2024-03-08T02:50:08;27.40;;;13.20;;
81725;SDS011;71135;16.738;-14.648;2024-03-08T02:52:40;25.40;;;14.32;;
81725;SDS011;71135;16.738;-14.648;2024-03-08T02:55:09;29.58;;;14.00;;
81725;SDS011;71135;16.738;-14.648;2024-03-08T02:57:41;29.55;;;14.55;;
81725;SDS011;71135;16.738;-14.648;2024-03-08T03:00:13;27.05;;;14.52;;
81725;SDS011;71135;16.738;-14.648;2024-03-08T03:02:42;24.23;;;13.75;;
81725;SDS011;71135;16.738;-14.648;2024-03-08T03:05:11;28.00;;;14.07;;
81725;SDS011;71135;16.738;-14.648;2024-03-08T03:07:43;28.70;;;14.93;;
81725;SDS011;71135;16.738;-14.648;2024-03-08T03:10:13;28.45;;;14.77;;
81725;SDS011;71135;16.738;-14.648;2024-03-08T03:12:43;24.75;;;13.70;;
81725;SDS011;71135;16.738;-14.648;2024-03-08T03:15:14;31.08;;;14.95;;
81725;SDS011;71135;16.738;-14.648;2024-03-08T03:17:45;27.77;;;14.80;;
81725;SDS011;71135;16.738;-14.648;2024-03-08T03:20:16;25.48;;;14.25;;
81725;SDS011;71135;16.738;-14.648;2024-03-08T03:22:51;27.95;;;14.80;;
81725;SDS011;71135;16.738;-14.648;2024-03-08T03:25:22;29.60;;;14.52;;
81725;SDS011;71135;16.738;-14.648;2024-03-08T03:27:54;23.77;;;13.93;;
81725;SDS011;71135;16.738;-14.648;2024-03-08T03:30:24;26.70;;;14.90;;
81725;SDS011;71135;16.738;-14.648;2024-03-08T03:33:00;27.95;;;15.52;;
81725;SDS011;71135;16.738;-14.648;2024-03-08T03:35:32;25.90;;;14.77;;
81725;SDS011;71135;16.738;-14.648;2024-03-08T03:38:05;28.33;;;14.57;;
81725;SDS011;71135;16.738;-14.648;2024-03-08T03:40:36;27.00;;;14.60;;
81725;SDS011;71135;16.738;-14.648;2024-03-08T03:43:05;26.55;;;12.93;;
81725;SDS011;71135;16.738;-14.648;2024-03-08T03:45:35;26.38;;;14.45;;
81725;SDS011;71135;16.738;-14.648;2024-03-08T03:48:05;29.13;;;14.40;;
81725;SDS011;71135;16.738;-14.648;2024-03-08T03:50:35;28.15;;;14.70;;
81725;SDS011;71135;16.738;-14.648;2024-03-08T03:53:07;26.02;;;14.40;;
81725;SDS011;71135;16.738;-14.648;2024-03-08T03:55:36;27.02;;;14.50;;
81725;SDS011;71135;16.738;-14.648;2024-03-08T03:58:05;31.00;;;15.90;;
81725;SDS011;71135;16.738;-14.648;2024-03-08T04:00:35;28.05;;;14.48;;
81725;SDS011;71135;16.738;-14.648;2024-03-08T04:03:04;30.25;;;15.35;;
81725;SDS011;71135;16.738;-14.648;2024-03-08T04:05:34;27.08;;;15.50;;
81725;SDS011;71135;16.738;-14.648;2024-03-08T04:08:03;27.48;;;15.18;;
81725;SDS011;71135;16.738;-14.648;2024-03-08T04:10:35;30.65;;;15.55;;
81725;SDS011;71135;16.738;-14.648;2024-03-08T04:13:04;30.60;;;15.13;;
81725;SDS011;71135;16.738;-14.648;2024-03-08T04:15:35;28.83;;;15.85;;
81725;SDS011;71135;16.738;-14.648;2024-03-08T04:18:04;24.77;;;14.75;;
81725;SDS011;71135;16.738;-14.648;2024-03-08T04:20:33;27.27;;;15.60;;
81725;SDS011;71135;16.738;-14.648;2024-03-08T04:23:02;30.17;;;14.95;;
81725;SDS011;71135;16.738;-14.648;2024-03-08T04:25:34;24.98;;;13.65;;
81725;SDS011;71135;16.738;-14.648;2024-03-08T04:28:04;28.60;;;15.70;;
81725;SDS011;71135;16.738;-14.648;2024-03-08T04:30:33;25.27;;;14.27;;
81725;SDS011;71135;16.738;-14.648;2024-03-08T04:33:02;25.50;;;14.77;;
81725;SDS011;71135;16.738;-14.648;2024-03-08T04:35:32;32.58;;;15.77;;
81725;SDS011;71135;16.738;-14.648;2024-03-08T04:38:01;26.95;;;14.63;;
81725;SDS011;71135;16.738;-14.648;2024-03-08T04:40:31;33.00;;;14.93;;
81725;SDS011;71135;16.738;-14.648;2024-03-08T04:43:02;29.02;;;15.00;;
81725;SDS011;71135;16.738;-14.648;2024-03-08T04:45:33;25.17;;;15.73;;
81725;SDS011;71135;16.738;-14.648;2024-03-08T04:48:03;25.75;;;15.35;;
81725;SDS011;71135;16.738;-14.648;2024-03-08T04:50:34;25.15;;;14.75;;
81725;SDS011;71135;16.738;-14.648;2024-03-08T04:53:03;29.52;;;16.23;;
81725;SDS011;71135;16.738;-14.648;2024-03-08T04:55:33;31.23;;;16.58;;
81725;SDS011;71135;16.738;-14.648;2024-03-08T04:58:05;31.83;;;16.23;;
81725;SDS011;71135;16.738;-14.648;2024-03-08T05:00:35;29.45;;;14.30;;
81725;SDS011;71135;16.738;-14.648;2024-03-08T05:03:04;27.27;;;15.38;;
81725;SDS011;71135;16.738;-14.648;2024-03-08T05:05:33;28.48;;;14.85;;
81725;SDS011;71135;16.738;-14.648;2024-03-08T05:08:02;25.90;;;15.30;;
81725;SDS011;71135;16.738;-14.648;2024-03-08T05:10:33;27.88;;;14.60;;
81725;SDS011;71135;16.738;-14.648;2024-03-08T05:13:02;28.17;;;14.77;;
81725;SDS011;71135;16.738;-14.648;2024-03-08T05:15:34;29.55;;;16.42;;
81725;SDS011;71135;16.738;-14.648;2024-03-08T05:18:04;31.25;;;15.98;;
81725;SDS011;71135;16.738;-14.648;2024-03-08T05:20:37;30.75;;;16.55;;
81725;SDS011;71135;16.738;-14.648;2024-03-08T05:23:06;26.77;;;15.90;;
81725;SDS011;71135;16.738;-14.648;2024-03-08T05:25:36;26.38;;;15.07;;
81725;SDS011;71135;16.738;-14.648;2024-03-08T05:28:05;30.75;;;16.85;;
81725;SDS011;71135;16.738;-14.648;2024-03-08T05:30:37;28.80;;;15.65;;
81725;SDS011;71135;16.738;-14.648;2024-03-08T05:33:07;25.90;;;14.73;;
81725;SDS011;71135;16.738;-14.648;2024-03-08T05:35:40;29.52;;;16.17;;
81725;SDS011;71135;16.738;-14.648;2024-03-08T05:38:09;28.73;;;15.80;;
81725;SDS011;71135;16.738;-14.648;2024-03-08T05:40:38;28.35;;;16.15;;
81725;SDS011;71135;16.738;-14.648;2024-03-08T05:43:08;28.02;;;16.00;;
81725;SDS011;71135;16.738;-14.648;2024-03-08T05:45:38;33.42;;;16.48;;
81725;SDS011;71135;16.738;-14.648;2024-03-08T05:48:07;29.90;;;16.77;;
81725;SDS011;71135;16.738;-14.648;2024-03-08T05:50:38;37.10;;;20.27;;
81725;SDS011;71135;16.738;-14.648;2024-03-08T05:53:09;36.28;;;19.35;;
81725;SDS011;71135;16.738;-14.648;2024-03-08T05:55:38;35.30;;;19.70;;
81725;SDS011;71135;16.738;-14.648;2024-03-08T05:58:07;33.05;;;20.45;;
81725;SDS011;71135;16.738;-14.648;2024-03-08T06:00:39;33.30;;;19.33;;
81725;SDS011;71135;16.738;-14.648;2024-03-08T06:03:09;38.53;;;20.55;;
81725;SDS011;71135;16.738;-14.648;2024-03-08T06:05:39;34.22;;;19.50;;
81725;SDS011;71135;16.738;-14.648;2024-03-08T06:08:09;32.50;;;18.92;;
81725;SDS011;71135;16.738;-14.648;2024-03-08T06:10:41;33.50;;;19.30;;
81725;SDS011;71135;16.738;-14.648;2024-03-08T06:13:11;34.35;;;18.50;;
81725;SDS011;71135;16.738;-14.648;2024-03-08T06:15:43;30.95;;;17.33;;
81725;SDS011;71135;16.738;-14.648;2024-03-08T06:18:12;32.47;;;17.77;;
81725;SDS011;71135;16.738;-14.648;2024-03-08T06:20:41;31.15;;;17.88;;
81725;SDS011;71135;16.738;-14.648;2024-03-08T06:23:11;28.38;;;17.33;;
81725;SDS011;71135;16.738;-14.648;2024-03-08T06:25:43;29.35;;;17.33;;
81725;SDS011;71135;16.738;-14.648;2024-03-08T06:28:12;35.55;;;18.08;;
81725;SDS011;71135;16.738;-14.648;2024-03-08T06:30:45;30.73;;;17.73;;
81725;SDS011;71135;16.738;-14.648;2024-03-08T06:33:16;30.10;;;16.85;;
81725;SDS011;71135;16.738;-14.648;2024-03-08T06:35:45;40.45;;;18.33;;
81725;SDS011;71135;16.738;-14.648;2024-03-08T06:38:14;30.25;;;17.52;;
81725;SDS011;71135;16.738;-14.648;2024-03-08T06:40:46;28.65;;;17.05;;
81725;SDS011;71135;16.738;-14.648;2024-03-08T06:43:17;32.03;;;16.90;;
81725;SDS011;71135;16.738;-14.648;2024-03-08T06:45:48;30.13;;;17.13;;
81725;SDS011;71135;16.738;-14.648;2024-03-08T06:48:18;31.15;;;18.17;;
81725;SDS011;71135;16.738;-14.648;2024-03-08T06:50:47;35.05;;;17.60;;
81725;SDS011;71135;16.738;-14.648;2024-03-08T06:53:16;35.90;;;18.27;;
81725;SDS011;71135;16.738;-14.648;2024-03-08T06:55:46;29.90;;;17.98;;
81725;SDS011;71135;16.738;-14.648;2024-03-08T06:58:16;40.60;;;18.77;;
81725;SDS011;71135;16.738;-14.648;2024-03-08T07:00:45;34.28;;;17.88;;
81725;SDS011;71135;16.738;-14.648;2024-03-08T07:03:20;32.17;;;17.33;;
81725;SDS011;71135;16.738;-14.648;2024-03-08T07:05:49;29.98;;;17.45;;
81725;SDS011;71135;16.738;-14.648;2024-03-08T07:08:20;30.48;;;16.80;;
81725;SDS011;71135;16.738;-14.648;2024-03-08T07:10:49;29.48;;;16.83;;
81725;SDS011;71135;16.738;-14.648;2024-03-08T07:13:18;31.75;;;19.02;;
81725;SDS011;71135;16.738;-14.648;2024-03-08T07:15:48;28.70;;;16.85;;
81725;SDS011;71135;16.738;-14.648;2024-03-08T07:18:20;31.95;;;17.27;;
81725;SDS011;71135;16.738;-14.648;2024-03-08T07:20:49;31.23;;;17.35;;
81725;SDS011;71135;16.738;-14.648;2024-03-08T07:23:19;30.67;;;16.35;;
81725;SDS011;71135;16.738;-14.648;2024-03-08T07:26:00;20.73;;;13.65;;
81725;SDS011;71135;16.738;-14.648;2024-03-08T07:28:29;25.58;;;15.32;;
81725;SDS011;71135;16.738;-14.648;2024-03-08T07:30:59;30.30;;;17.15;;
81725;SDS011;71135;16.738;-14.648;2024-03-08T07:33:45;33.70;;;18.42;;
81725;SDS011;71135;16.738;-14.648;2024-03-08T07:36:16;27.50;;;16.55;;
81725;SDS011;71135;16.738;-14.648;2024-03-08T07:38:45;27.80;;;16.83;;
81725;SDS011;71135;16.738;-14.648;2024-03-08T07:41:14;26.60;;;15.73;;
81725;SDS011;71135;16.738;-14.648;2024-03-08T07:43:45;30.33;;;17.65;;
81725;SDS011;71135;16.738;-14.648;2024-03-08T07:46:15;28.52;;;16.77;;
81725;SDS011;71135;16.738;-14.648;2024-03-08T07:48:47;27.55;;;17.05;;
81725;SDS011;71135;16.738;-14.648;2024-03-08T07:51:17;30.77;;;15.93;;
81725;SDS011;71135;16.738;-14.648;2024-03-08T07:53:46;29.02;;;17.08;;
81725;SDS011;71135;16.738;-14.648;2024-03-08T07:56:15;33.67;;;17.50;;
81725;SDS011;71135;16.738;-14.648;2024-03-08T07:58:46;29.90;;;16.58;;
81725;SDS011;71135;16.738;-14.648;2024-03-08T08:01:16;29.00;;;16.88;;
81725;SDS011;71135;16.738;-14.648;2024-03-08T08:03:48;28.33;;;16.15;;
81725;SDS011;71135;16.738;-14.648;2024-03-08T08:06:18;28.25;;;16.75;;
81725;SDS011;71135;16.738;-14.648;2024-03-08T08:08:47;26.92;;;16.80;;
81725;SDS011;71135;16.738;-14.648;2024-03-08T08:11:16;25.92;;;16.83;;
81725;SDS011;71135;16.738;-14.648;2024-03-08T08:13:46;27.30;;;15.82;;
81725;SDS011;71135;16.738;-14.648;2024-03-08T08:16:15;31.17;;;17.08;;
81725;SDS011;71135;16.738;-14.648;2024-03-08T08:18:45;27.60;;;17.42;;
81725;SDS011;71135;16.738;-14.648;2024-03-08T08:21:18;34.42;;;16.65;;
81725;SDS011;71135;16.738;-14.648;2024-03-08T08:23:47;34.10;;;16.77;;
81725;SDS011;71135;16.738;-14.648;2024-03-08T08:26:17;28.77;;;17.52;;
81725;SDS011;71135;16.738;-14.648;2024-03-08T08:28:47;28.88;;;16.30;;
81725;SDS011;71135;16.738;-14.648;2024-03-08T08:31:16;27.55;;;15.55;;
81725;SDS011;71135;16.738;-14.648;2024-03-08T08:33:50;29.65;;;15.25;;
81725;SDS011;71135;16.738;-14.648;2024-03-08T08:36:24;30.95;;;16.25;;
81725;SDS011;71135;16.738;-14.648;2024-03-08T08:38:50;29.55;;;15.15;;
81725;SDS011;71135;16.738;-14.648;2024-03-08T08:41:20;29.92;;;16.70;;
81725;SDS011;71135;16.738;-14.648;2024-03-08T08:43:49;24.85;;;15.02;;
81725;SDS011;71135;16.738;-14.648;2024-03-08T08:46:19;27.63;;;16.55;;
81725;SDS011;71135;16.738;-14.648;2024-03-08T08:48:51;28.25;;;15.77;;
81725;SDS011;71135;16.738;-14.648;2024-03-08T08:51:20;25.38;;;15.98;;
81725;SDS011;71135;16.738;-14.648;2024-03-08T08:53:49;29.70;;;14.82;;
81725;SDS011;71135;16.738;-14.648;2024-03-08T08:56:19;26.98;;;16.08;;
81725;SDS011;71135;16.738;-14.648;2024-03-08T08:58:48;30.90;;;16.85;;
81725;SDS011;71135;16.738;-14.648;2024-03-08T09:01:19;31.13;;;16.67;;
81725;SDS011;71135;16.738;-14.648;2024-03-08T09:03:51;27.45;;;16.45;;
81725;SDS011;71135;16.738;-14.648;2024-03-08T09:06:20;29.33;;;17.05;;
81725;SDS011;71135;16.738;-14.648;2024-03-08T09:08:50;27.42;;;15.93;;
81725;SDS011;71135;16.738;-14.648;2024-03-08T09:11:20;29.73;;;17.55;;
81725;SDS011;71135;16.738;-14.648;2024-03-08T09:13:50;27.98;;;17.70;;
81725;SDS011;71135;16.738;-14.648;2024-03-08T09:16:20;31.63;;;18.33;;
81725;SDS011;71135;16.738;-14.648;2024-03-08T09:22:11;29.55;;;17.48;;
81725;SDS011;71135;16.738;-14.648;2024-03-08T09:24:42;24.30;;;15.30;;
81725;SDS011;71135;16.738;-14.648;2024-03-08T09:27:11;27.25;;;16.17;;
81725;SDS011;71135;16.738;-14.648;2024-03-08T09:29:41;31.20;;;18.30;;
81725;SDS011;71135;16.738;-14.648;2024-03-08T09:35:31;27.45;;;16.17;;
81725;SDS011;71135;16.738;-14.648;2024-03-08T09:38:04;26.30;;;13.75;;
81725;SDS011;71135;16.738;-14.648;2024-03-08T09:40:38;26.45;;;16.25;;
81725;SDS011;71135;16.738;-14.648;2024-03-08T09:49:46;22.80;;;12.88;;
81725;SDS011;71135;16.738;-14.648;2024-03-08T09:52:15;25.35;;;15.32;;
81725;SDS011;71135;16.738;-14.648;2024-03-08T09:54:49;26.63;;;17.15;;
81725;SDS011;71135;16.738;-14.648;2024-03-08T09:57:19;26.50;;;16.38;;
81725;SDS011;71135;16.738;-14.648;2024-03-08T09:59:51;27.35;;;17.15;;
81725;SDS011;71135;16.738;-14.648;2024-03-08T10:02:20;26.17;;;16.20;;
81725;SDS011;71135;16.738;-14.648;2024-03-08T10:04:51;28.15;;;17.35;;
81725;SDS011;71135;16.738;-14.648;2024-03-08T10:07:20;24.65;;;15.68;;
81725;SDS011;71135;16.738;-14.648;2024-03-08T10:09:54;28.60;;;16.08;;
81725;SDS011;71135;16.738;-14.648;2024-03-08T10:12:23;25.10;;;16.05;;
81725;SDS011;71135;16.738;-14.648;2024-03-08T10:14:54;25.38;;;15.85;;
81725;SDS011;71135;16.738;-14.648;2024-03-08T10:17:23;26.83;;;16.83;;
81725;SDS011;71135;16.738;-14.648;2024-03-08T10:19:58;28.85;;;15.77;;
81725;SDS011;71135;16.738;-14.648;2024-03-08T10:22:28;26.40;;;15.38;;
81725;SDS011;71135;16.738;-14.648;2024-03-08T10:25:00;28.05;;;15.88;;
81725;SDS011;71135;16.738;-14.648;2024-03-08T10:27:30;29.77;;;16.45;;
81725;SDS011;71135;16.738;-14.648;2024-03-08T10:30:01;26.20;;;15.80;;
81725;SDS011;71135;16.738;-14.648;2024-03-08T10:35:40;25.90;;;15.93;;
81725;SDS011;71135;16.738;-14.648;2024-03-08T10:38:10;24.60;;;15.88;;
81725;SDS011;71135;16.738;-14.648;2024-03-08T10:40:46;26.33;;;15.85;;
81725;SDS011;71135;16.738;-14.648;2024-03-08T10:43:18;30.20;;;17.13;;
81725;SDS011;71135;16.738;-14.648;2024-03-08T10:45:57;25.02;;;16.40;;
81725;SDS011;71135;16.738;-14.648;2024-03-08T10:48:36;27.17;;;16.65;;
81725;SDS011;71135;16.738;-14.648;2024-03-08T10:51:11;26.17;;;17.00;;
81725;SDS011;71135;16.738;-14.648;2024-03-08T10:53:41;26.08;;;16.17;;
81725;SDS011;71135;16.738;-14.648;2024-03-08T10:56:15;23.40;;;16.17;;
81725;SDS011;71135;16.738;-14.648;2024-03-08T10:58:45;25.50;;;16.40;;
81725;SDS011;71135;16.738;-14.648;2024-03-08T11:01:15;27.92;;;16.55;;
81725;SDS011;71135;16.738;-14.648;2024-03-08T11:03:45;26.40;;;16.55;;
81725;SDS011;71135;16.738;-14.648;2024-03-08T11:06:19;26.10;;;16.67;;
81725;SDS011;71135;16.738;-14.648;2024-03-08T11:11:27;23.38;;;15.98;;
81725;SDS011;71135;16.738;-14.648;2024-03-08T11:14:00;26.08;;;18.13;;
81725;SDS011;71135;16.738;-14.648;2024-03-08T11:16:36;28.15;;;17.63;;
81725;SDS011;71135;16.738;-14.648;2024-03-08T11:19:24;25.65;;;16.83;;
81725;SDS011;71135;16.738;-14.648;2024-03-08T11:21:57;25.90;;;16.10;;
81725;SDS011;71135;16.738;-14.648;2024-03-08T11:24:27;24.40;;;17.15;;
81725;SDS011;71135;16.738;-14.648;2024-03-08T11:26:59;24.85;;;16.10;;
81725;SDS011;71135;16.738;-14.648;2024-03-08T11:29:33;24.88;;;16.65;;
81725;SDS011;71135;16.738;-14.648;2024-03-08T11:32:09;23.92;;;15.65;;
81725;SDS011;71135;16.738;-14.648;2024-03-08T11:34:40;25.23;;;16.77;;
81725;SDS011;71135;16.738;-14.648;2024-03-08T11:37:12;24.60;;;16.35;;
81725;SDS011;71135;16.738;-14.648;2024-03-08T11:39:46;24.80;;;15.88;;
81725;SDS011;71135;16.738;-14.648;2024-03-08T11:44:50;23.50;;;15.60;;
81725;SDS011;71135;16.738;-14.648;2024-03-08T11:47:20;23.42;;;15.00;;
81725;SDS011;71135;16.738;-14.648;2024-03-08T11:49:52;26.52;;;15.23;;
81725;SDS011;71135;16.738;-14.648;2024-03-08T11:52:21;24.13;;;16.05;;
81725;SDS011;71135;16.738;-14.648;2024-03-08T11:54:51;23.50;;;15.57;;
81725;SDS011;71135;16.738;-14.648;2024-03-08T11:57:25;25.30;;;15.13;;
81725;SDS011;71135;16.738;-14.648;2024-03-08T11:59:55;21.63;;;15.25;;
81725;SDS011;71135;16.738;-14.648;2024-03-08T12:02:33;25.75;;;15.10;;
81725;SDS011;71135;16.738;-14.648;2024-03-08T12:05:03;24.40;;;16.15;;
81725;SDS011;71135;16.738;-14.648;2024-03-08T12:07:35;22.60;;;14.63;;
81725;SDS011;71135;16.738;-14.648;2024-03-08T12:10:14;22.00;;;15.32;;
81725;SDS011;71135;16.738;-14.648;2024-03-08T12:12:48;21.27;;;14.48;;
81725;SDS011;71135;16.738;-14.648;2024-03-08T12:15:19;21.75;;;14.32;;
81725;SDS011;71135;16.738;-14.648;2024-03-08T12:17:50;20.73;;;14.35;;
81725;SDS011;71135;16.738;-14.648;2024-03-08T12:20:21;25.67;;;14.93;;
81725;SDS011;71135;16.738;-14.648;2024-03-08T12:22:52;20.35;;;14.27;;
81725;SDS011;71135;16.738;-14.648;2024-03-08T12:25:22;23.85;;;14.93;;
81725;SDS011;71135;16.738;-14.648;2024-03-08T12:28:06;22.95;;;14.57;;
81725;SDS011;71135;16.738;-14.648;2024-03-08T12:30:44;21.42;;;14.88;;
81725;SDS011;71135;16.738;-14.648;2024-03-08T12:33:16;22.38;;;14.38;;
81725;SDS011;71135;16.738;-14.648;2024-03-08T12:35:52;20.38;;;14.38;;
81725;SDS011;71135;16.738;-14.648;2024-03-08T12:38:23;18.88;;;14.13;;
81725;SDS011;71135;16.738;-14.648;2024-03-08T12:40:58;23.60;;;14.27;;
81725;SDS011;71135;16.738;-14.648;2024-03-08T12:43:30;22.60;;;14.38;;
81725;SDS011;71135;16.738;-14.648;2024-03-08T12:45:59;20.67;;;14.55;;
81725;SDS011;71135;16.738;-14.648;2024-03-08T12:48:33;22.13;;;14.73;;
81725;SDS011;71135;16.738;-14.648;2024-03-08T12:51:06;21.88;;;14.32;;
81725;SDS011;71135;16.738;-14.648;2024-03-08T12:53:35;23.52;;;15.00;;
81725;SDS011;71135;16.738;-14.648;2024-03-08T12:56:09;22.30;;;14.80;;
81725;SDS011;71135;16.738;-14.648;2024-03-08T12:58:39;21.45;;;13.90;;
81725;SDS011;71135;16.738;-14.648;2024-03-08T13:01:08;22.08;;;15.32;;
81725;SDS011;71135;16.738;-14.648;2024-03-08T13:03:38;21.27;;;14.88;;
81725;SDS011;71135;16.738;-14.648;2024-03-08T13:06:09;20.77;;;14.85;;
81725;SDS011;71135;16.738;-14.648;2024-03-08T13:08:38;23.13;;;14.52;;
81725;SDS011;71135;16.738;-14.648;2024-03-08T13:11:09;23.77;;;14.35;;
81725;SDS011;71135;16.738;-14.648;2024-03-08T13:13:42;19.75;;;12.35;;
81725;SDS011;71135;16.738;-14.648;2024-03-08T13:16:11;21.20;;;14.32;;
81725;SDS011;71135;16.738;-14.648;2024-03-08T13:18:41;21.42;;;14.95;;
81725;SDS011;71135;16.738;-14.648;2024-03-08T13:21:10;18.35;;;12.98;;
81725;SDS011;71135;16.738;-14.648;2024-03-08T13:23:40;20.75;;;14.05;;
81725;SDS011;71135;16.738;-14.648;2024-03-08T13:26:12;18.95;;;13.82;;
81725;SDS011;71135;16.738;-14.648;2024-03-08T13:28:44;20.33;;;13.77;;
81725;SDS011;71135;16.738;-14.648;2024-03-08T13:31:14;21.13;;;14.40;;
81725;SDS011;71135;16.738;-14.648;2024-03-08T13:33:44;21.17;;;14.10;;
81725;SDS011;71135;16.738;-14.648;2024-03-08T13:36:14;20.83;;;14.93;;
81725;SDS011;71135;16.738;-14.648;2024-03-08T13:38:47;24.80;;;15.35;;
81725;SDS011;71135;16.738;-14.648;2024-03-08T13:41:16;22.13;;;15.10;;
81725;SDS011;71135;16.738;-14.648;2024-03-08T13:43:50;24.05;;;15.48;;
81725;SDS011;71135;16.738;-14.648;2024-03-08T13:46:21;25.20;;;16.50;;
81725;SDS011;71135;16.738;-14.648;2024-03-08T13:48:52;24.90;;;16.05;;
81725;SDS011;71135;16.738;-14.648;2024-03-08T13:51:28;23.60;;;17.00;;
81725;SDS011;71135;16.738;-14.648;2024-03-08T13:53:58;26.55;;;18.83;;
81725;SDS011;71135;16.738;-14.648;2024-03-08T13:56:27;22.20;;;16.73;;
81725;SDS011;71135;16.738;-14.648;2024-03-08T13:58:59;25.73;;;17.17;;
81725;SDS011;71135;16.738;-14.648;2024-03-08T14:01:28;24.05;;;15.30;;
81725;SDS011;71135;16.738;-14.648;2024-03-08T14:03:57;20.75;;;13.95;;
81725;SDS011;71135;16.738;-14.648;2024-03-08T14:06:27;24.48;;;15.10;;
81725;SDS011;71135;16.738;-14.648;2024-03-08T14:08:56;21.08;;;14.85;;
81725;SDS011;71135;16.738;-14.648;2024-03-08T14:11:25;21.70;;;14.25;;
81725;SDS011;71135;16.738;-14.648;2024-03-08T14:13:54;21.10;;;15.30;;
81725;SDS011;71135;16.738;-14.648;2024-03-08T14:16:26;23.45;;;15.50;;
81725;SDS011;71135;16.738;-14.648;2024-03-08T14:18:55;21.45;;;14.15;;
81725;SDS011;71135;16.738;-14.648;2024-03-08T14:21:29;20.38;;;14.95;;
81725;SDS011;71135;16.738;-14.648;2024-03-08T14:23:58;23.00;;;14.45;;
81725;SDS011;71135;16.738;-14.648;2024-03-08T14:26:27;24.75;;;15.55;;
81725;SDS011;71135;16.738;-14.648;2024-03-08T14:28:56;23.20;;;15.13;;
81725;SDS011;71135;16.738;-14.648;2024-03-08T14:31:28;19.75;;;14.52;;
81725;SDS011;71135;16.738;-14.648;2024-03-08T14:33:57;20.10;;;14.60;;
81725;SDS011;71135;16.738;-14.648;2024-03-08T14:36:26;22.13;;;14.88;;
81725;SDS011;71135;16.738;-14.648;2024-03-08T14:38:56;22.63;;;15.13;;
81725;SDS011;71135;16.738;-14.648;2024-03-08T14:41:25;22.33;;;15.52;;
81725;SDS011;71135;16.738;-14.648;2024-03-08T14:43:55;24.65;;;16.88;;
81725;SDS011;71135;16.738;-14.648;2024-03-08T14:46:28;23.77;;;15.68;;